Waynetown, Indiana
Current Conditions -  °F | °C
As of 4:54 PM on Monday 22 Dec 2014 (Local Time) from KLAF Reporting Station
Light Rain Light Rain  
Wind Chill: 33°   Ceiling: 5500
Heat Index: 41°   Visibility: 7mi
Dew Point: 38°   Wind: 14mph
Humidity: 89%   Direction: 110°ESE
Pressure: 29.72"   Gusts: NA
Location:  40.09°N, 87.06°W
Report Text: KLAF 222154Z 11012KT 7SM -RA FEW041 BKN055 OVC065 05/03 A2972 RMK AO2 RAB29 SLP068 P0000 T00500033
Loading
Personal Weather Stations






























Interactive Weather Map New forecast layout! Learn more

10-Day Weather Forecast

Advertisements
Track Severe Weather on mobile